Time;durP1;ratioP1;P1;durP2;ratioP2;P2;SDS_P1;SDS_P2;PMS_P1;PMS_P2;Temp;Humidity;BMP_temperature;BMP_pressure;BME280_temperature;BME280_humidity;BME280_pressure;Samples;Min_cycle;Max_cycle;Signal;HPM_P1;HPM_P2
2022/04/29 00:00:51;;;;;;;8.23;3.67;;;;;;;-145.50;100.00;65435.88;5073522;28;20049;-66
2022/04/29 00:03:18;;;;;;;8.55;3.67;;;;;;;-145.50;100.00;65435.88;5068327;28;20055;-66
2022/04/29 00:05:46;;;;;;;13.88;4.50;;;;;;;-145.50;100.00;65435.88;5069268;28;20060;-66
2022/04/29 00:08:13;;;;;;;9.68;3.80;;;;;;;-145.50;100.00;65435.88;5078735;28;20056;-66
2022/04/29 00:10:41;;;;;;;12.15;4.25;;;;;;;-145.50;100.00;65435.88;5073656;28;20052;-71
2022/04/29 00:13:10;;;;;;;7.37;3.60;;;;;;;-145.50;100.00;65435.88;5077345;28;20049;-67
2022/04/29 00:15:37;;;;;;;12.20;3.95;;;;;;;-145.50;100.00;65435.88;5065163;28;20659;-67
2022/04/29 00:18:04;;;;;;;11.95;3.95;;;;;;;-145.50;100.00;65435.88;5075607;28;20063;-67
2022/04/29 00:20:30;;;;;;;9.63;4.05;;;;;;;-145.50;100.00;65435.88;5084572;28;20052;-66
2022/04/29 00:22:56;;;;;;;7.78;3.88;;;;;;;-145.50;100.00;65435.88;5063282;28;20055;-67
2022/04/29 00:25:23;;;;;;;12.13;4.25;;;;;;;-145.50;100.00;65435.88;5082262;28;20266;-68
2022/04/29 00:27:49;;;;;;;10.70;4.22;;;;;;;-145.50;100.00;65435.88;5066727;28;20126;-65
2022/04/29 00:30:16;;;;;;;10.05;4.32;;;;;;;-145.50;100.00;65435.88;5072222;28;20051;-67
2022/04/29 00:32:42;;;;;;;10.57;4.57;;;;;;;-145.50;100.00;65435.88;5075973;28;20059;-67
2022/04/29 00:35:09;;;;;;;9.57;4.50;;;;;;;-145.50;100.00;65435.88;5083036;28;20052;-67
2022/04/29 00:37:53;;;;;;;11.88;4.35;;;;;;;-145.50;100.00;65435.88;5084907;28;20050;-67
2022/04/29 00:40:30;;;;;;;10.05;4.45;;;;;;;-145.50;100.00;65435.88;5061403;28;20055;-67
2022/04/29 00:42:57;;;;;;;11.45;4.45;;;;;;;-145.50;100.00;65435.88;5080177;28;20051;-66
2022/04/29 00:45:25;;;;;;;13.52;4.65;;;;;;;-145.50;100.00;65435.88;5077124;28;20048;-66
2022/04/29 00:47:52;;;;;;;9.38;4.57;;;;;;;-145.50;100.00;65435.88;5075933;28;20055;-67
2022/04/29 00:50:22;;;;;;;8.20;4.10;;;;;;;-145.50;100.00;65435.88;5064754;28;20418;-66
2022/04/29 00:52:51;;;;;;;14.60;6.03;;;;;;;-145.50;100.00;65435.88;5070511;28;20048;-66
2022/04/29 00:55:20;;;;;;;15.00;5.07;;;;;;;-145.50;100.00;65435.88;5057525;28;20058;-66
2022/04/29 00:58:20;;;;;;;12.57;3.85;;;;;;;-145.50;100.00;65435.88;5082148;28;20051;-66
2022/04/29 01:00:47;;;;;;;12.98;4.80;;;;;;;-145.50;100.00;65435.88;5073994;28;20123;-66
2022/04/29 01:03:14;;;;;;;10.18;5.40;;;;;;;-145.50;100.00;65435.88;5071496;28;20048;-65
2022/04/29 01:05:42;;;;;;;9.60;5.20;;;;;;;-145.50;100.00;65435.88;5077789;28;20493;-66
2022/04/29 01:08:10;;;;;;;10.43;5.27;;;;;;;-145.50;100.00;65435.88;5060324;28;20052;-66
2022/04/29 01:10:36;;;;;;;12.30;5.93;;;;;;;-145.50;100.00;65435.88;5071506;28;20148;-66
2022/04/29 01:13:04;;;;;;;12.15;5.50;;;;;;;-145.50;100.00;65435.88;5072466;28;20099;-66
2022/04/29 01:15:31;;;;;;;12.50;5.57;;;;;;;-145.50;100.00;65435.88;5086392;28;20052;-65
2022/04/29 01:18:08;;;;;;;10.10;5.50;;;;;;;-145.50;100.00;65435.88;5071072;28;20067;-66
2022/04/29 01:20:36;;;;;;;11.18;6.18;;;;;;;-145.50;100.00;65435.88;5065453;28;20131;-66
2022/04/29 01:23:07;;;;;;;10.88;5.65;;;;;;;-145.50;100.00;65435.88;5079208;28;20052;-66
2022/04/29 01:25:34;;;;;;;14.40;5.30;;;;;;;-145.50;100.00;65435.88;5074128;28;20056;-66
2022/04/29 01:28:00;;;;;;;12.27;5.60;;;;;;;-145.50;100.00;65435.88;5067293;28;20047;-66
2022/04/29 01:30:27;;;;;;;13.80;6.18;;;;;;;-145.50;100.00;65435.88;5060938;28;20051;-66
2022/04/29 01:32:55;;;;;;;11.70;5.80;;;;;;;-145.50;100.00;65435.88;5066715;28;20063;-65
2022/04/29 01:35:21;;;;;;;14.32;6.60;;;;;;;-145.50;100.00;65435.88;5063409;28;20055;-68
2022/04/29 01:37:49;;;;;;;11.05;5.90;;;;;;;-145.50;100.00;65435.88;5071832;28;20457;-65
2022/04/29 01:40:16;;;;;;;8.40;5.47;;;;;;;-145.50;100.00;65435.88;5067025;28;20059;-66
2022/04/29 01:42:43;;;;;;;12.55;5.50;;;;;;;-145.50;100.00;65435.88;5064399;28;20044;-66
2022/04/29 01:45:10;;;;;;;9.95;6.10;;;;;;;-145.50;100.00;65435.88;5078508;28;20062;-65
2022/04/29 01:47:37;;;;;;;12.52;6.93;;;;;;;-145.50;100.00;65435.88;5068134;28;20063;-65
2022/04/29 01:50:04;;;;;;;12.82;6.60;;;;;;;-145.50;100.00;65435.88;5061960;28;20491;-66
2022/04/29 01:52:30;;;;;;;8.13;6.18;;;;;;;-145.50;100.00;65435.88;5054845;28;20067;-66
2022/04/29 01:54:57;;;;;;;15.82;7.10;;;;;;;-145.50;100.00;65435.88;5065507;28;20057;-66
2022/04/29 01:57:23;;;;;;;10.75;6.32;;;;;;;-145.50;100.00;65435.88;5082628;28;20052;-66
2022/04/29 01:59:50;;;;;;;15.50;6.38;;;;;;;-145.50;100.00;65435.88;5058960;28;20055;-65
2022/04/29 02:02:17;;;;;;;14.63;6.40;;;;;;;-145.50;100.00;65435.88;5084421;28;20556;-66
2022/04/29 02:04:44;;;;;;;10.73;6.72;;;;;;;-145.50;100.00;65435.88;5062033;28;20079;-65
2022/04/29 02:07:11;;;;;;;11.23;7.30;;;;;;;-145.50;100.00;65435.88;5063172;28;20524;-65
2022/04/29 02:09:37;;;;;;;16.95;6.53;;;;;;;-145.50;100.00;65435.88;5059805;28;20055;-66
2022/04/29 02:12:05;;;;;;;12.77;7.07;;;;;;;-145.50;100.00;65435.88;5065571;28;20053;-66
2022/04/29 02:14:37;;;;;;;9.68;5.95;;;;;;;-145.50;100.00;65435.88;5066197;28;20135;-66
2022/04/29 02:17:06;;;;;;;21.67;7.85;;;;;;;-145.50;100.00;65435.88;5053105;28;21052;-66
2022/04/29 02:19:34;;;;;;;13.07;6.20;;;;;;;-145.50;100.00;65435.88;5062111;28;20049;-66
2022/04/29 02:22:02;;;;;;;14.95;7.13;;;;;;;-145.50;100.00;65435.88;5059055;28;20497;-66
2022/04/29 02:24:29;;;;;;;17.80;7.25;;;;;;;-145.50;100.00;65435.88;5070905;28;20067;-67
2022/04/29 02:26:59;;;;;;;17.50;7.47;;;;;;;-145.50;100.00;65435.88;5058800;28;20067;-66
2022/04/29 02:29:27;;;;;;;17.02;7.35;;;;;;;-145.50;100.00;65435.88;5076077;28;20078;-66
2022/04/29 02:31:55;;;;;;;14.88;6.40;;;;;;;-145.50;100.00;65435.88;5079127;28;20058;-66
2022/04/29 02:34:23;;;;;;;9.93;5.35;;;;;;;-145.50;100.00;65435.88;5069530;28;20052;-67
2022/04/29 02:36:50;;;;;;;10.65;6.25;;;;;;;-145.50;100.00;65435.88;5082265;28;20043;-66
2022/04/29 02:39:16;;;;;;;15.70;7.10;;;;;;;-145.50;100.00;65435.88;5072437;28;20048;-66
2022/04/29 02:41:44;;;;;;;15.68;7.57;;;;;;;-145.50;100.00;65435.88;5077649;28;20059;-66
2022/04/29 02:44:11;;;;;;;15.23;7.38;;;;;;;-145.50;100.00;65435.88;5074558;28;20426;-66
2022/04/29 02:47:06;;;;;;;14.25;7.07;;;;;;;-145.50;100.00;65435.88;5074464;28;20056;-66
2022/04/29 02:49:24;;;;;;;14.40;6.90;;;;;;;-145.50;100.00;65435.88;5072677;28;20052;-66
2022/04/29 02:51:50;;;;;;;9.90;5.90;;;;;;;-145.50;100.00;65435.88;5075793;28;20056;-66
2022/04/29 02:54:17;;;;;;;15.32;7.18;;;;;;;-145.50;100.00;65435.88;5080491;28;20487;-66
2022/04/29 02:56:43;;;;;;;15.55;6.82;;;;;;;-145.50;100.00;65435.88;5067195;28;20067;-66
2022/04/29 02:59:10;;;;;;;11.63;7.80;;;;;;;-145.50;100.00;65435.88;5077783;28;20047;-66
2022/04/29 03:01:36;;;;;;;18.48;7.53;;;;;;;-145.50;100.00;65435.88;5077256;28;20063;-66
2022/04/29 03:04:03;;;;;;;18.45;7.50;;;;;;;-145.50;100.00;65435.88;5076999;28;20047;-67
2022/04/29 03:06:29;;;;;;;16.63;7.15;;;;;;;-145.50;100.00;65435.88;5076775;28;20048;-67
2022/04/29 03:08:56;;;;;;;15.43;6.55;;;;;;;-145.50;100.00;65435.88;5075729;28;20052;-66
2022/04/29 03:11:24;;;;;;;16.25;7.43;;;;;;;-145.50;100.00;65435.88;5070910;28;20051;-66
2022/04/29 03:13:50;;;;;;;15.23;6.90;;;;;;;-145.50;100.00;65435.88;5072257;28;20049;-66
2022/04/29 03:16:16;;;;;;;12.82;7.38;;;;;;;-145.50;100.00;65435.88;5074855;28;20415;-67
2022/04/29 03:18:44;;;;;;;10.65;5.97;;;;;;;-145.50;100.00;65435.88;5076298;28;20142;-66
2022/04/29 03:21:10;;;;;;;15.32;7.10;;;;;;;-145.50;100.00;65435.88;5063818;28;20048;-67
2022/04/29 03:23:37;;;;;;;17.70;8.20;;;;;;;-145.50;100.00;65435.88;5076011;28;20052;-67
2022/04/29 03:26:04;;;;;;;21.30;8.13;;;;;;;-145.50;100.00;65435.88;5074588;28;20047;-67
2022/04/29 03:28:32;;;;;;;10.60;6.85;;;;;;;-145.50;100.00;65435.88;5069924;28;20135;-66
2022/04/29 03:30:59;;;;;;;15.20;7.60;;;;;;;-145.50;100.00;65435.88;5072045;28;20048;-67
2022/04/29 03:33:26;;;;;;;15.05;7.68;;;;;;;-145.50;100.00;65435.88;5075396;28;20563;-67
2022/04/29 03:35:55;;;;;;;16.88;7.50;;;;;;;-145.50;100.00;65435.88;5072295;28;20130;-67
2022/04/29 03:38:23;;;;;;;16.35;7.90;;;;;;;-145.50;100.00;65435.88;5082160;28;20059;-67
2022/04/29 03:40:50;;;;;;;21.45;7.75;;;;;;;-145.50;100.00;65435.88;5064638;28;20057;-67
2022/04/29 03:43:17;;;;;;;13.60;7.85;;;;;;;-145.50;100.00;65435.88;5059355;28;20424;-67
2022/04/29 03:45:45;;;;;;;13.45;7.38;;;;;;;-145.50;100.00;65435.88;5067286;28;20054;-66
2022/04/29 03:48:12;;;;;;;17.92;8.10;;;;;;;-145.50;100.00;65435.88;5065000;28;20047;-66
2022/04/29 03:50:39;;;;;;;16.17;7.90;;;;;;;-145.50;100.00;65435.88;5066811;28;20052;-66
2022/04/29 03:53:05;;;;;;;12.70;7.20;;;;;;;-145.50;100.00;65435.88;5073272;28;20481;-66
2022/04/29 03:55:34;;;;;;;15.48;7.10;;;;;;;-145.50;100.00;65435.88;5076473;28;20051;-67
2022/04/29 03:58:02;;;;;;;16.35;7.32;;;;;;;-145.50;100.00;65435.88;5070350;28;20059;-67
2022/04/29 04:00:31;;;;;;;16.55;6.57;;;;;;;-145.50;100.00;65435.88;5077477;28;20052;-67
2022/04/29 04:02:58;;;;;;;19.20;7.35;;;;;;;-145.50;100.00;65435.88;5070811;28;20044;-66
2022/04/29 04:05:25;;;;;;;16.85;7.03;;;;;;;-145.50;100.00;65435.88;5071288;28;20084;-67
2022/04/29 04:07:51;;;;;;;19.00;7.82;;;;;;;-145.50;100.00;65435.88;5073255;28;20044;-68
2022/04/29 04:10:18;;;;;;;19.75;7.28;;;;;;;-145.50;100.00;65435.88;5058001;28;20630;-66
2022/04/29 04:12:47;;;;;;;17.17;7.57;;;;;;;-145.50;100.00;65435.88;5081844;28;20079;-67
2022/04/29 04:15:14;;;;;;;;;;;;;;;-145.50;100.00;65435.88;5065431;28;20051;-67
2022/04/29 04:17:41;;;;;;;12.73;6.57;;;;;;;-145.50;100.00;65435.88;5069506;28;19935;-66
2022/04/29 04:20:10;;;;;;;16.88;7.85;;;;;;;-145.50;100.00;65435.88;5078059;28;20086;-67
2022/04/29 04:22:37;;;;;;;13.40;6.10;;;;;;;-145.50;100.00;65435.88;5059323;28;20261;-67
2022/04/29 04:25:05;;;;;;;17.35;7.03;;;;;;;-145.50;100.00;65435.88;5062459;28;20052;-66
2022/04/29 04:27:32;;;;;;;;;;;;;;;-145.50;100.00;65435.88;5063650;28;20509;-66
2022/04/29 04:30:00;;;;;;;14.95;6.38;;;;;;;-145.50;100.00;65435.88;5084847;28;19920;-66
2022/04/29 04:32:27;;;;;;;16.77;6.43;;;;;;;-145.50;100.00;65435.88;5066846;28;20482;-67
2022/04/29 04:34:54;;;;;;;16.20;6.80;;;;;;;-145.50;100.00;65435.88;5071972;28;20342;-67
2022/04/29 04:37:24;;;;;;;10.13;5.47;;;;;;;-145.50;100.00;65435.88;5080700;28;20558;-67
2022/04/29 04:39:51;;;;;;;13.48;6.45;;;;;;;-145.50;100.00;65435.88;5058768;28;20052;-66
2022/04/29 04:42:18;;;;;;;18.83;7.40;;;;;;;-145.50;100.00;65435.88;5072872;28;20075;-66
2022/04/29 04:44:49;;;;;;;15.48;6.55;;;;;;;-145.50;100.00;65435.88;5059127;28;20049;-66
2022/04/29 04:47:17;;;;;;;12.43;5.90;;;;;;;-145.50;100.00;65435.88;5071869;28;20430;-66
2022/04/29 04:49:43;;;;;;;14.90;6.97;;;;;;;-145.50;100.00;65435.88;5061239;28;20047;-67
2022/04/29 04:52:10;;;;;;;17.27;6.93;;;;;;;-145.50;100.00;65435.88;5080862;28;20056;-67
2022/04/29 04:54:37;;;;;;;15.52;6.95;;;;;;;-145.50;100.00;65435.88;5072901;28;20127;-66
2022/04/29 04:57:04;;;;;;;16.02;7.18;;;;;;;-145.50;100.00;65435.88;5059005;28;20063;-66
2022/04/29 04:59:31;;;;;;;17.35;7.90;;;;;;;-145.50;100.00;65435.88;5076276;28;20052;-67
2022/04/29 05:01:58;;;;;;;17.63;7.20;;;;;;;-145.50;100.00;65435.88;5061924;28;20040;-66
2022/04/29 05:04:25;;;;;;;18.83;7.05;;;;;;;-145.50;100.00;65435.88;5069240;28;20049;-66
2022/04/29 05:06:51;;;;;;;15.52;6.20;;;;;;;-145.50;100.00;65435.88;5062525;28;20049;-66
2022/04/29 05:09:18;;;;;;;15.90;7.00;;;;;;;-145.50;100.00;65435.88;5075708;28;20052;-66
2022/04/29 05:11:44;;;;;;;14.23;6.30;;;;;;;-145.50;100.00;65435.88;5076899;28;20055;-67
2022/04/29 05:14:31;;;;;;;14.57;6.43;;;;;;;-145.50;100.00;65435.88;5061645;28;20052;-66
2022/04/29 05:16:57;;;;;;;13.43;6.95;;;;;;;-145.50;100.00;65435.88;5063311;28;20062;-66
2022/04/29 05:19:23;;;;;;;11.52;7.07;;;;;;;-145.50;100.00;65435.88;5065048;28;20147;-67
2022/04/29 05:21:51;;;;;;;16.35;7.35;;;;;;;-145.50;100.00;65435.88;5065743;28;20056;-67
2022/04/29 05:24:17;;;;;;;13.43;6.78;;;;;;;-145.50;100.00;65435.88;5070491;28;20610;-67
2022/04/29 05:26:51;;;;;;;19.83;7.60;;;;;;;-145.50;100.00;65435.88;5062040;28;20143;-66
2022/04/29 05:29:17;;;;;;;22.17;6.68;;;;;;;-145.50;100.00;65435.88;5075345;28;20056;-66
2022/04/29 05:31:44;;;;;;;14.20;7.40;;;;;;;-145.50;100.00;65435.88;5072478;28;20373;-65
2022/04/29 05:34:10;;;;;;;22.52;7.50;;;;;;;-145.50;100.00;65435.88;5066503;28;20051;-67
2022/04/29 05:36:37;;;;;;;14.73;7.18;;;;;;;-145.50;100.00;65435.88;5072066;28;20052;-66
2022/04/29 05:44:34;;;;;;;16.23;6.63;;;;;;;-145.50;100.00;65435.88;5066643;28;20056;-66
2022/04/29 05:47:01;;;;;;;14.98;6.88;;;;;;;-145.50;100.00;65435.88;5070183;28;20080;-67
2022/04/29 05:49:28;;;;;;;17.58;7.13;;;;;;;-145.50;100.00;65435.88;5072436;28;20141;-66
2022/04/29 05:51:54;;;;;;;15.13;7.25;;;;;;;-145.50;100.00;65435.88;5064155;28;20946;-65
2022/04/29 05:54:21;;;;;;;16.33;7.07;;;;;;;-145.50;100.00;65435.88;5056246;28;20044;-67
2022/04/29 05:56:47;;;;;;;18.08;7.30;;;;;;;-145.50;100.00;65435.88;5063169;28;20045;-66
2022/04/29 05:59:14;;;;;;;12.15;6.05;;;;;;;-145.50;100.00;65435.88;5059084;28;20075;-68
2022/04/29 06:01:40;;;;;;;19.90;8.27;;;;;;;-145.50;100.00;65435.88;5065838;28;20056;-66
2022/04/29 06:04:07;;;;;;;14.95;7.22;;;;;;;-145.50;100.00;65435.88;5062511;28;20106;-67
2022/04/29 06:06:34;;;;;;;13.02;7.60;;;;;;;-145.50;100.00;65435.88;5080257;28;20053;-66
2022/04/29 06:09:01;;;;;;;10.40;6.20;;;;;;;-145.50;100.00;65435.88;5054477;28;20052;-67
2022/04/29 06:11:27;;;;;;;15.80;6.97;;;;;;;-145.50;100.00;65435.88;5077570;28;20059;-66
2022/04/29 06:13:53;;;;;;;15.15;7.60;;;;;;;-145.50;100.00;65435.88;5075481;28;20059;-66
2022/04/29 06:16:20;;;;;;;17.75;7.05;;;;;;;-145.50;100.00;65435.88;5072822;28;20060;-66
2022/04/29 06:18:47;;;;;;;19.83;7.50;;;;;;;-145.50;100.00;65435.88;5083689;28;20052;-66
2022/04/29 06:21:16;;;;;;;15.13;7.60;;;;;;;-145.50;100.00;65435.88;5067638;28;20422;-66
2022/04/29 06:23:43;;;;;;;20.65;7.95;;;;;;;-145.50;100.00;65435.88;5066411;28;20048;-67
2022/04/29 06:26:09;;;;;;;15.25;7.00;;;;;;;-145.50;100.00;65435.88;5069956;28;20169;-66
2022/04/29 06:28:36;;;;;;;13.82;6.72;;;;;;;-145.50;100.00;65435.88;5068503;28;20052;-66
2022/04/29 06:31:03;;;;;;;17.92;6.63;;;;;;;-145.50;100.00;65435.88;5071354;28;20413;-67
2022/04/29 06:33:30;;;;;;;17.00;7.53;;;;;;;-145.50;100.00;65435.88;5066691;28;20044;-67
2022/04/29 06:35:57;;;;;;;17.98;7.38;;;;;;;-145.50;100.00;65435.88;5067872;28;20045;-67
2022/04/29 06:38:24;;;;;;;13.68;6.97;;;;;;;-145.50;100.00;65435.88;5060004;28;20057;-67
2022/04/29 06:40:51;;;;;;;18.17;8.05;;;;;;;-145.50;100.00;65435.88;5069574;28;20125;-67
2022/04/29 06:43:17;;;;;;;15.60;7.20;;;;;;;-145.50;100.00;65435.88;5065963;28;20134;-68
2022/04/29 06:45:44;;;;;;;15.43;6.97;;;;;;;-145.50;100.00;65435.88;5083297;28;20048;-66
2022/04/29 06:48:10;;;;;;;20.40;8.48;;;;;;;-145.50;100.00;65435.88;5080380;28;20106;-67
2022/04/29 06:50:37;;;;;;;15.02;7.50;;;;;;;-145.50;100.00;65435.88;5057180;28;20048;-67
2022/04/29 06:53:03;;;;;;;11.30;6.70;;;;;;;-145.50;100.00;65435.88;5074727;28;20123;-67
2022/04/29 06:55:30;;;;;;;16.17;7.70;;;;;;;-145.50;100.00;65435.88;5073975;28;20063;-67
2022/04/29 06:57:56;;;;;;;15.02;6.75;;;;;;;-145.50;100.00;65435.88;5086726;28;20054;-66
2022/04/29 07:00:23;;;;;;;15.45;7.40;;;;;;;-145.50;100.00;65435.88;5068819;28;20054;-66
2022/04/29 07:02:51;;;;;;;15.45;7.10;;;;;;;-145.50;100.00;65435.88;5067702;28;20414;-66
2022/04/29 07:05:17;;;;;;;15.13;6.95;;;;;;;-145.50;100.00;65435.88;5075493;28;20079;-66
2022/04/29 07:07:49;;;;;;;15.25;7.00;;;;;;;-145.50;100.00;65435.88;5065116;28;20062;-65
2022/04/29 07:10:16;;;;;;;14.07;7.05;;;;;;;-145.50;100.00;65435.88;5077267;28;20154;-66
2022/04/29 07:12:43;;;;;;;15.40;7.85;;;;;;;-145.50;100.00;65435.88;5071751;28;20131;-68
2022/04/29 07:15:13;;;;;;;12.30;6.55;;;;;;;-145.50;100.00;65435.88;5080098;28;20048;-68
2022/04/29 07:17:41;;;;;;;12.95;7.43;;;;;;;-145.50;100.00;65435.88;5053083;28;20057;-67
2022/04/29 07:20:09;;;;;;;16.15;7.22;;;;;;;-145.50;100.00;65435.88;5073979;28;20141;-67
2022/04/29 07:22:38;;;;;;;16.63;7.18;;;;;;;-145.50;100.00;65435.88;5080112;28;20125;-67
2022/04/29 07:25:06;;;;;;;18.70;7.00;;;;;;;-145.50;100.00;65435.88;5069434;28;20063;-67
2022/04/29 07:27:35;;;;;;;10.70;6.80;;;;;;;-145.50;100.00;65435.88;5067659;28;20052;-67
2022/04/29 07:30:04;;;;;;;17.23;6.55;;;;;;;-145.50;100.00;65435.88;5062385;28;20492;-66
2022/04/29 07:32:31;;;;;;;16.52;7.35;;;;;;;-145.50;100.00;65435.88;5056556;28;20071;-67
2022/04/29 07:43:14;;;;;;;13.40;6.35;;;;;;;-145.50;100.00;65435.88;5065923;28;20064;-67
2022/04/29 07:45:42;;;;;;;16.98;6.32;;;;;;;-145.50;100.00;65435.88;5070277;28;20541;-67
2022/04/29 07:48:09;;;;;;;16.67;7.20;;;;;;;-145.50;100.00;65435.88;5056495;28;20055;-66
2022/04/29 07:50:35;;;;;;;11.38;5.90;;;;;;;-145.50;100.00;65435.88;5075249;28;20056;-67
2022/04/29 07:53:03;;;;;;;19.55;7.03;;;;;;;-145.50;100.00;65435.88;5062017;28;20404;-67
2022/04/29 07:55:29;;;;;;;19.88;6.55;;;;;;;-145.50;100.00;65435.88;5070560;28;20105;-68
2022/04/29 07:57:56;;;;;;;11.00;7.30;;;;;;;-145.50;100.00;65435.88;5063491;28;20060;-67
2022/04/29 08:00:23;;;;;;;16.45;6.82;;;;;;;-145.50;100.00;65435.88;5058130;28;20048;-66
2022/04/29 08:02:49;;;;;;;15.98;6.10;;;;;;;-145.50;100.00;65435.88;5071553;28;20076;-67
2022/04/29 08:05:18;;;;;;;10.43;6.20;;;;;;;-145.50;100.00;65435.88;5072986;28;20078;-67
2022/04/29 08:07:44;;;;;;;13.48;6.03;;;;;;;-145.50;100.00;65435.88;5067054;28;20095;-66
2022/04/29 08:10:11;;;;;;;10.82;5.80;;;;;;;-145.50;100.00;65435.88;5053761;28;20545;-67
2022/04/29 08:12:37;;;;;;;15.10;6.45;;;;;;;-145.50;100.00;65435.88;5059389;28;20059;-67
2022/04/29 08:15:05;;;;;;;11.63;5.78;;;;;;;-145.50;100.00;65435.88;5046522;28;20148;-67
2022/04/29 08:17:32;;;;;;;11.63;4.97;;;;;;;-145.50;100.00;65435.88;5074113;28;20476;-67
2022/04/29 08:19:59;;;;;;;13.85;5.70;;;;;;;-145.50;100.00;65435.88;5062309;28;20368;-67
2022/04/29 08:22:25;;;;;;;11.07;5.38;;;;;;;-145.50;100.00;65435.88;5053102;28;20055;-66
2022/04/29 08:24:52;;;;;;;14.07;5.97;;;;;;;-145.50;100.00;65435.88;5059603;28;20557;-67
2022/04/29 08:27:18;;;;;;;13.38;5.50;;;;;;;-145.50;100.00;65435.88;5045297;28;20052;-66
2022/04/29 08:29:52;;;;;;;13.13;5.38;;;;;;;-145.50;100.00;65435.88;5060741;28;20266;-69
2022/04/29 08:32:19;;;;;;;8.68;5.10;;;;;;;-145.50;100.00;65435.88;5053236;28;20048;-67
2022/04/29 08:34:46;;;;;;;13.73;5.65;;;;;;;-145.50;100.00;65435.88;5060827;28;20528;-67
2022/04/29 08:37:12;;;;;;;14.48;5.60;;;;;;;-145.50;100.00;65435.88;5072803;28;20577;-67
2022/04/29 08:39:39;;;;;;;11.57;6.22;;;;;;;-145.50;100.00;65435.88;5063529;28;20054;-67
2022/04/29 08:42:06;;;;;;;12.25;6.53;;;;;;;-145.50;100.00;65435.88;5059901;28;20132;-67
2022/04/29 08:44:34;;;;;;;16.38;6.70;;;;;;;-145.50;100.00;65435.88;5064403;28;20048;-67
2022/04/29 08:47:04;;;;;;;11.43;5.78;;;;;;;-145.50;100.00;65435.88;5072305;28;20460;-67
2022/04/29 08:49:31;;;;;;;9.57;5.85;;;;;;;-145.50;100.00;65435.88;5059003;28;20252;-67
2022/04/29 08:51:58;;;;;;;10.83;5.43;;;;;;;-145.50;100.00;65435.88;5070175;28;20778;-68
2022/04/29 09:00:04;;;;;;;12.20;5.40;;;;;;;-145.50;100.00;65435.88;5061083;28;20053;-68
2022/04/29 09:02:40;;;;;;;17.60;5.50;;;;;;;-145.50;100.00;65435.88;5055826;28;20489;-66
2022/04/29 09:05:09;;;;;;;15.05;5.78;;;;;;;-145.50;100.00;65435.88;5063375;28;20135;-67
2022/04/29 09:07:54;;;;;;;;;;;;;;;-145.50;100.00;65435.88;5056246;28;20441;-67
2022/04/29 09:10:23;;;;;;;10.63;4.63;;;;;;;-145.50;100.00;65435.88;5056158;28;20293;-67
2022/04/29 09:12:49;;;;;;;;;;;;;;;-145.50;100.00;65435.88;5071661;28;20051;-67
2022/04/29 09:15:16;;;;;;;9.65;5.03;;;;;;;-145.50;100.00;65435.88;5081063;28;19924;-67
2022/04/29 09:17:48;;;;;;;13.48;5.38;;;;;;;-145.50;100.00;65435.88;5053670;28;20386;-67
2022/04/29 09:20:20;;;;;;;11.50;5.78;;;;;;;-145.50;100.00;65435.88;5060287;28;20066;-67
2022/04/29 09:22:49;;;;;;;11.77;5.43;;;;;;;-145.50;100.00;65435.88;5054698;28;20063;-68
2022/04/29 09:25:17;;;;;;;9.65;5.45;;;;;;;-145.50;100.00;65435.88;5054145;28;20041;-66
2022/04/29 09:28:09;;;;;;;11.18;5.90;;;;;;;-145.50;100.00;65435.88;5059656;28;20079;-67
2022/04/29 09:30:39;;;;;;;15.25;5.50;;;;;;;-145.50;100.00;65435.88;5055205;28;20074;-67
2022/04/29 09:33:26;;;;;;;11.90;5.47;;;;;;;-145.50;100.00;65435.88;5062079;28;20059;-67
2022/04/29 09:35:54;;;;;;;10.73;5.77;;;;;;;-145.50;100.00;65435.88;5047741;28;20048;-67
2022/04/29 09:41:07;;;;;;;9.45;5.35;;;;;;;-145.50;100.00;65435.88;5053284;28;20249;-67
2022/04/29 09:43:44;;;;;;;9.43;4.43;;;;;;;-145.50;100.00;65435.88;5067885;28;20508;-67
2022/04/29 09:46:18;;;;;;;13.02;5.50;;;;;;;-145.50;100.00;65435.88;5053302;28;20652;-67
2022/04/29 09:49:08;;;;;;;12.32;5.10;;;;;;;-145.50;100.00;65435.88;5055613;28;20367;-67
2022/04/29 09:51:44;;;;;;;9.82;5.70;;;;;;;-145.50;100.00;65435.88;5060571;28;20084;-67
2022/04/29 09:54:22;;;;;;;11.15;5.35;;;;;;;-145.50;100.00;65435.88;5059513;28;20420;-67
2022/04/29 09:57:02;;;;;;;11.85;6.07;;;;;;;-145.50;100.00;65435.88;5063286;28;20564;-67
2022/04/29 09:59:51;;;;;;;15.45;5.90;;;;;;;-145.50;100.00;65435.88;5057143;28;20048;-67
2022/04/29 10:02:21;;;;;;;12.45;6.18;;;;;;;-145.50;100.00;65435.88;5069577;28;20375;-68
2022/04/29 10:04:50;;;;;;;10.68;5.72;;;;;;;-145.50;100.00;65435.88;5067811;28;20122;-67
2022/04/29 10:07:20;;;;;;;12.27;6.25;;;;;;;-145.50;100.00;65435.88;5075001;28;20130;-67
2022/04/29 10:09:52;;;;;;;11.40;5.53;;;;;;;-145.50;100.00;65435.88;5062652;28;20143;-67
2022/04/29 10:12:20;;;;;;;12.52;6.15;;;;;;;-145.50;100.00;65435.88;5070086;28;20057;-68
2022/04/29 10:14:51;;;;;;;16.08;7.00;;;;;;;-145.50;100.00;65435.88;5080222;28;20050;-67
2022/04/29 10:23:13;;;;;;;19.13;7.57;;;;;;;-145.50;100.00;65435.88;5057730;28;20049;-66
2022/04/29 10:25:42;;;;;;;13.50;7.70;;;;;;;-145.50;100.00;65435.88;5072723;28;20051;-67
2022/04/29 10:28:10;;;;;;;11.85;7.63;;;;;;;-145.50;100.00;65435.88;5076302;28;20052;-67
2022/04/29 10:30:38;;;;;;;9.95;6.80;;;;;;;-145.50;100.00;65435.88;5069916;28;20059;-67
2022/04/29 10:33:05;;;;;;;;;;;;;;;-145.50;100.00;65435.88;5066994;28;20054;-67
2022/04/29 10:35:46;;;;;;;11.15;5.90;;;;;;;-145.50;100.00;65435.88;5089952;28;19923;-67
2022/04/29 10:38:15;;;;;;;14.00;7.25;;;;;;;-145.50;100.00;65435.88;5065489;28;20135;-67
2022/04/29 10:40:43;;;;;;;11.48;6.18;;;;;;;-145.50;100.00;65435.88;5061905;28;20054;-68
2022/04/29 10:43:11;;;;;;;14.60;6.33;;;;;;;-145.50;100.00;65435.88;5081416;28;20063;-65
2022/04/29 10:46:05;;;;;;;13.15;6.60;;;;;;;-145.50;100.00;65435.88;5052113;28;20287;-67
2022/04/29 10:48:36;;;;;;;13.73;5.85;;;;;;;-145.50;100.00;65435.88;5065378;28;20076;-67
2022/04/29 10:51:27;;;;;;;10.25;4.95;;;;;;;-145.50;100.00;65435.88;5059314;28;20060;-67
2022/04/29 10:53:55;;;;;;;14.10;5.70;;;;;;;-145.50;100.00;65435.88;5065243;28;20072;-67
2022/04/29 10:56:28;;;;;;;12.38;5.72;;;;;;;-145.50;100.00;65435.88;5057796;28;20052;-67
2022/04/29 10:59:03;;;;;;;14.23;6.28;;;;;;;-145.50;100.00;65435.88;5060136;28;20494;-68
2022/04/29 11:01:33;;;;;;;8.55;6.00;;;;;;;-145.50;100.00;65435.88;5055311;28;20139;-68
2022/04/29 11:04:01;;;;;;;9.85;6.10;;;;;;;-145.50;100.00;65435.88;5066321;28;20051;-68
2022/04/29 11:06:41;;;;;;;11.55;6.03;;;;;;;-145.50;100.00;65435.88;5066130;28;20286;-68
2022/04/29 11:09:31;;;;;;;11.98;5.90;;;;;;;-145.50;100.00;65435.88;5063495;28;20056;-69
2022/04/29 11:11:58;;;;;;;17.98;5.95;;;;;;;-145.50;100.00;65435.88;5064341;28;20055;-68
2022/04/29 11:14:25;;;;;;;16.73;6.53;;;;;;;-145.50;100.00;65435.88;5058707;28;20448;-68
2022/04/29 11:16:53;;;;;;;10.93;6.38;;;;;;;-145.50;100.00;65435.88;5067864;28;20048;-68
2022/04/29 11:19:21;;;;;;;;;;;;;;;-145.50;100.00;65435.88;5059921;28;20133;-68
2022/04/29 11:24:46;;;;;;;16.02;5.60;;;;;;;-145.50;100.00;65435.88;5056803;28;20082;-68
2022/04/29 11:27:12;;;;;;;9.98;4.88;;;;;;;-145.50;100.00;65435.88;5070378;28;20048;-67
2022/04/29 11:29:43;;;;;;;13.20;5.32;;;;;;;-145.50;100.00;65435.88;5066147;28;20618;-67
2022/04/29 11:32:09;;;;;;;10.30;6.07;;;;;;;-145.50;100.00;65435.88;5065358;28;20052;-68
2022/04/29 11:34:53;;;;;;;12.07;6.05;;;;;;;-145.50;100.00;65435.88;5068603;28;20048;-67
2022/04/29 11:37:33;;;;;;;11.10;5.30;;;;;;;-145.50;100.00;65435.88;5072014;28;20543;-68
2022/04/29 11:40:05;;;;;;;14.35;6.00;;;;;;;-145.50;100.00;65435.88;5067340;28;20537;-68
2022/04/29 11:42:31;;;;;;;12.07;6.10;;;;;;;-145.50;100.00;65435.88;5058861;28;20043;-68